الصفحة الرئيسية
METAR-TAF:

METAR-TAF

مطار :

مطار البصرة الدولي

البصرة, العراق

دائرة عرض: 30-32-56N, خط طول: 47-39-45E, ارتفاع: 1 متر

مراقبة الطقس الحالي

تاريخ ووقت الإصدار 1ساعة و 5 دقيقة قبل الساعة 14:00UTC
ريح 12 عقدة من الشمال/الشمال الغربي
درجة الحرارة 48°درجة مئوية
الرطوبة 8%
ضغط 995 hPa
الرؤية 10 كم أو أكثر
الغيوم لا تقل 1500 م ولا وجود لمزنة ركامية السحاب الأسود

METAR: ORMM 201400Z 33012KT CAVOK 48/06 Q0995 NOSIG

زمن: 18:05 (15:05 UTC)

توقعات

تاريخ ووقت الإصدار 5ساعات و 5 دقيقة قبل الساعة 10:00UTC
التوقعات صالحة من20 الساعة 12 UTC إلى 21 الساعة 12 UTC
ريح 16 عقدة من الشمال
الرؤية 10 كم أو أكثر
الغيوم لا تقل 1500 م ولا وجود لمزنة ركامية السحاب الأسود
مؤقت
من 20 الساعة 16 UTC إلى 21 الساعة 03 UTC
ريح 6 عقدة من الغرب/الشمال الغربي

TAF: ORMM 201000Z 2012/2112 35016KT CAVOK TEMPO 2016/2103 29006KT

أرصاد الطقس والتوقعات من أكثر من 4000 مطار (تقارير الطقس للمطار METAR والتنبؤ بالطقس بالمطارTAF).

المحطات المتاحة هي النقط الصفراء والحمراء على الخريطة.

حرك المؤشر فوق النقطة لمعرفة اسم المحطة.

ثم انقر لمعرفة أرصاد وتوقعات الطقس.

لتغيير الخارطة: اضغط على الأزرار الخضراء مع رمز الصليب الأسود للتكبير. على الزر الأخضر مع شرطة للتصغير، أو على الأسهم الخضراء للخرائط المجاورة.


METAR-TAF: